sensor_id;sensor_type;location;lat;lon;timestamp;P1;durP1;ratioP1;P2;durP2;ratioP2
17214;SDS011;8723;51.502;6.918;2024-02-21T00:02:20;35.30;;;21.25;;
17214;SDS011;8723;51.502;6.918;2024-02-21T00:04:47;29.67;;;19.80;;
17214;SDS011;8723;51.502;6.918;2024-02-21T00:07:15;33.42;;;21.77;;
17214;SDS011;8723;51.502;6.918;2024-02-21T00:09:43;29.15;;;20.17;;
17214;SDS011;8723;51.502;6.918;2024-02-21T00:12:12;33.00;;;20.83;;
17214;SDS011;8723;51.502;6.918;2024-02-21T00:14:40;29.20;;;21.08;;
17214;SDS011;8723;51.502;6.918;2024-02-21T00:17:07;31.90;;;20.65;;
17214;SDS011;8723;51.502;6.918;2024-02-21T00:19:34;32.00;;;21.10;;
17214;SDS011;8723;51.502;6.918;2024-02-21T00:22:01;30.57;;;21.07;;
17214;SDS011;8723;51.502;6.918;2024-02-21T00:24:28;32.05;;;20.58;;
17214;SDS011;8723;51.502;6.918;2024-02-21T00:26:55;31.55;;;20.35;;
17214;SDS011;8723;51.502;6.918;2024-02-21T00:29:24;26.45;;;19.40;;
17214;SDS011;8723;51.502;6.918;2024-02-21T00:31:52;29.00;;;19.35;;
17214;SDS011;8723;51.502;6.918;2024-02-21T00:34:19;29.42;;;19.67;;
17214;SDS011;8723;51.502;6.918;2024-02-21T00:36:46;30.42;;;20.42;;
17214;SDS011;8723;51.502;6.918;2024-02-21T00:39:14;31.10;;;21.13;;
17214;SDS011;8723;51.502;6.918;2024-02-21T00:41:41;29.88;;;20.40;;
17214;SDS011;8723;51.502;6.918;2024-02-21T00:44:09;30.75;;;21.05;;
17214;SDS011;8723;51.502;6.918;2024-02-21T00:46:37;31.15;;;20.83;;
17214;SDS011;8723;51.502;6.918;2024-02-21T00:49:04;30.35;;;20.02;;
17214;SDS011;8723;51.502;6.918;2024-02-21T00:51:31;28.17;;;19.98;;
17214;SDS011;8723;51.502;6.918;2024-02-21T00:53:59;29.27;;;20.60;;
17214;SDS011;8723;51.502;6.918;2024-02-21T00:56:26;35.03;;;21.67;;
17214;SDS011;8723;51.502;6.918;2024-02-21T00:58:54;29.83;;;20.25;;
17214;SDS011;8723;51.502;6.918;2024-02-21T01:01:22;31.73;;;20.30;;
17214;SDS011;8723;51.502;6.918;2024-02-21T01:03:51;28.70;;;20.13;;
17214;SDS011;8723;51.502;6.918;2024-02-21T01:06:18;30.45;;;20.75;;
17214;SDS011;8723;51.502;6.918;2024-02-21T01:08:45;29.92;;;20.17;;
17214;SDS011;8723;51.502;6.918;2024-02-21T01:11:13;31.48;;;19.70;;
17214;SDS011;8723;51.502;6.918;2024-02-21T01:13:40;29.70;;;21.05;;
17214;SDS011;8723;51.502;6.918;2024-02-21T01:16:07;29.75;;;20.65;;
17214;SDS011;8723;51.502;6.918;2024-02-21T01:18:36;29.83;;;20.88;;
17214;SDS011;8723;51.502;6.918;2024-02-21T01:21:05;29.10;;;20.93;;
17214;SDS011;8723;51.502;6.918;2024-02-21T01:23:32;32.05;;;20.92;;
17214;SDS011;8723;51.502;6.918;2024-02-21T01:26:00;28.30;;;20.40;;
17214;SDS011;8723;51.502;6.918;2024-02-21T01:28:27;30.83;;;21.35;;
17214;SDS011;8723;51.502;6.918;2024-02-21T01:30:54;28.58;;;20.85;;
17214;SDS011;8723;51.502;6.918;2024-02-21T01:33:21;31.27;;;20.50;;
17214;SDS011;8723;51.502;6.918;2024-02-21T01:35:48;31.47;;;21.17;;
17214;SDS011;8723;51.502;6.918;2024-02-21T01:38:17;27.95;;;19.67;;
17214;SDS011;8723;51.502;6.918;2024-02-21T01:40:44;29.33;;;19.85;;
17214;SDS011;8723;51.502;6.918;2024-02-21T01:43:17;26.83;;;19.27;;
17214;SDS011;8723;51.502;6.918;2024-02-21T01:45:46;30.30;;;20.17;;
17214;SDS011;8723;51.502;6.918;2024-02-21T01:48:15;27.48;;;19.15;;
17214;SDS011;8723;51.502;6.918;2024-02-21T01:50:43;27.80;;;18.95;;
17214;SDS011;8723;51.502;6.918;2024-02-21T01:53:10;27.10;;;18.73;;
17214;SDS011;8723;51.502;6.918;2024-02-21T01:55:44;26.00;;;18.13;;
17214;SDS011;8723;51.502;6.918;2024-02-21T01:58:11;27.80;;;18.33;;
17214;SDS011;8723;51.502;6.918;2024-02-21T02:00:38;28.42;;;17.95;;
17214;SDS011;8723;51.502;6.918;2024-02-21T02:03:07;26.55;;;18.30;;
17214;SDS011;8723;51.502;6.918;2024-02-21T02:05:35;27.80;;;17.92;;
17214;SDS011;8723;51.502;6.918;2024-02-21T02:08:02;26.25;;;18.10;;
17214;SDS011;8723;51.502;6.918;2024-02-21T02:10:29;24.13;;;17.05;;
17214;SDS011;8723;51.502;6.918;2024-02-21T02:12:57;24.25;;;17.17;;
17214;SDS011;8723;51.502;6.918;2024-02-21T02:15:25;26.52;;;18.35;;
17214;SDS011;8723;51.502;6.918;2024-02-21T02:17:52;22.60;;;16.43;;
17214;SDS011;8723;51.502;6.918;2024-02-21T02:20:19;26.27;;;17.73;;
17214;SDS011;8723;51.502;6.918;2024-02-21T02:22:46;25.27;;;17.98;;
17214;SDS011;8723;51.502;6.918;2024-02-21T02:25:15;23.45;;;17.42;;
17214;SDS011;8723;51.502;6.918;2024-02-21T02:27:42;22.67;;;16.88;;
17214;SDS011;8723;51.502;6.918;2024-02-21T02:30:10;27.70;;;17.48;;
17214;SDS011;8723;51.502;6.918;2024-02-21T02:32:37;26.40;;;17.83;;
17214;SDS011;8723;51.502;6.918;2024-02-21T02:35:05;25.23;;;17.23;;
17214;SDS011;8723;51.502;6.918;2024-02-21T02:37:32;28.08;;;17.92;;
17214;SDS011;8723;51.502;6.918;2024-02-21T02:39:59;23.60;;;17.08;;
17214;SDS011;8723;51.502;6.918;2024-02-21T02:42:29;28.40;;;17.38;;
17214;SDS011;8723;51.502;6.918;2024-02-21T02:44:57;25.20;;;17.25;;
17214;SDS011;8723;51.502;6.918;2024-02-21T02:47:24;27.17;;;17.20;;
17214;SDS011;8723;51.502;6.918;2024-02-21T02:49:54;27.47;;;17.77;;
17214;SDS011;8723;51.502;6.918;2024-02-21T02:52:23;26.88;;;18.33;;
17214;SDS011;8723;51.502;6.918;2024-02-21T02:54:52;28.20;;;17.55;;
17214;SDS011;8723;51.502;6.918;2024-02-21T02:57:22;26.38;;;17.50;;
17214;SDS011;8723;51.502;6.918;2024-02-21T02:59:52;27.00;;;17.67;;
17214;SDS011;8723;51.502;6.918;2024-02-21T03:02:22;25.50;;;16.58;;
17214;SDS011;8723;51.502;6.918;2024-02-21T03:04:51;22.15;;;15.57;;
17214;SDS011;8723;51.502;6.918;2024-02-21T03:07:20;27.63;;;17.20;;
17214;SDS011;8723;51.502;6.918;2024-02-21T03:09:49;26.77;;;16.97;;
17214;SDS011;8723;51.502;6.918;2024-02-21T03:12:19;26.83;;;16.48;;
17214;SDS011;8723;51.502;6.918;2024-02-21T03:14:55;29.77;;;16.75;;
17214;SDS011;8723;51.502;6.918;2024-02-21T03:17:24;24.80;;;17.00;;
17214;SDS011;8723;51.502;6.918;2024-02-21T03:19:54;24.40;;;17.02;;
17214;SDS011;8723;51.502;6.918;2024-02-21T03:22:23;28.42;;;16.90;;
17214;SDS011;8723;51.502;6.918;2024-02-21T03:24:52;25.17;;;16.98;;
17214;SDS011;8723;51.502;6.918;2024-02-21T03:27:21;23.05;;;16.00;;
17214;SDS011;8723;51.502;6.918;2024-02-21T03:29:51;27.42;;;16.58;;
17214;SDS011;8723;51.502;6.918;2024-02-21T03:32:22;25.90;;;16.73;;
17214;SDS011;8723;51.502;6.918;2024-02-21T03:34:51;29.00;;;16.83;;
17214;SDS011;8723;51.502;6.918;2024-02-21T03:37:21;30.42;;;17.33;;
17214;SDS011;8723;51.502;6.918;2024-02-21T03:39:50;23.95;;;16.65;;
17214;SDS011;8723;51.502;6.918;2024-02-21T03:42:19;25.25;;;16.35;;
17214;SDS011;8723;51.502;6.918;2024-02-21T03:44:48;23.35;;;16.08;;
17214;SDS011;8723;51.502;6.918;2024-02-21T03:47:17;22.98;;;15.35;;
17214;SDS011;8723;51.502;6.918;2024-02-21T03:49:48;26.50;;;16.27;;
17214;SDS011;8723;51.502;6.918;2024-02-21T03:52:18;24.52;;;15.15;;
17214;SDS011;8723;51.502;6.918;2024-02-21T03:54:47;22.98;;;15.30;;
17214;SDS011;8723;51.502;6.918;2024-02-21T03:57:16;24.15;;;15.77;;
17214;SDS011;8723;51.502;6.918;2024-02-21T03:59:44;24.75;;;15.63;;
17214;SDS011;8723;51.502;6.918;2024-02-21T04:02:13;22.52;;;14.65;;
17214;SDS011;8723;51.502;6.918;2024-02-21T04:04:43;23.60;;;14.95;;
17214;SDS011;8723;51.502;6.918;2024-02-21T04:07:15;23.17;;;14.90;;
17214;SDS011;8723;51.502;6.918;2024-02-21T04:09:44;23.13;;;15.07;;
17214;SDS011;8723;51.502;6.918;2024-02-21T04:12:13;22.63;;;14.55;;
17214;SDS011;8723;51.502;6.918;2024-02-21T04:14:42;21.20;;;15.83;;
17214;SDS011;8723;51.502;6.918;2024-02-21T04:17:09;25.48;;;15.68;;
17214;SDS011;8723;51.502;6.918;2024-02-21T04:19:36;20.65;;;15.20;;
17214;SDS011;8723;51.502;6.918;2024-02-21T04:22:03;24.15;;;15.00;;
17214;SDS011;8723;51.502;6.918;2024-02-21T04:24:32;18.13;;;13.97;;
17214;SDS011;8723;51.502;6.918;2024-02-21T04:26:59;24.33;;;16.00;;
17214;SDS011;8723;51.502;6.918;2024-02-21T04:29:26;24.77;;;15.05;;
17214;SDS011;8723;51.502;6.918;2024-02-21T04:31:54;21.02;;;14.20;;
17214;SDS011;8723;51.502;6.918;2024-02-21T04:34:21;22.38;;;14.20;;
17214;SDS011;8723;51.502;6.918;2024-02-21T04:36:48;19.58;;;13.50;;
17214;SDS011;8723;51.502;6.918;2024-02-21T04:39:15;21.90;;;14.50;;
17214;SDS011;8723;51.502;6.918;2024-02-21T04:41:44;21.73;;;14.15;;
17214;SDS011;8723;51.502;6.918;2024-02-21T04:44:11;22.70;;;14.68;;
17214;SDS011;8723;51.502;6.918;2024-02-21T04:46:38;23.00;;;14.70;;
17214;SDS011;8723;51.502;6.918;2024-02-21T04:49:08;22.77;;;14.20;;
17214;SDS011;8723;51.502;6.918;2024-02-21T04:51:35;22.60;;;14.60;;
17214;SDS011;8723;51.502;6.918;2024-02-21T04:54:02;25.00;;;13.68;;
17214;SDS011;8723;51.502;6.918;2024-02-21T04:56:30;21.37;;;13.77;;
17214;SDS011;8723;51.502;6.918;2024-02-21T04:58:58;19.15;;;13.98;;
17214;SDS011;8723;51.502;6.918;2024-02-21T05:01:25;19.77;;;13.50;;
17214;SDS011;8723;51.502;6.918;2024-02-21T05:03:52;22.35;;;13.50;;
17214;SDS011;8723;51.502;6.918;2024-02-21T05:06:19;18.90;;;13.18;;
17214;SDS011;8723;51.502;6.918;2024-02-21T05:08:46;20.02;;;13.88;;
17214;SDS011;8723;51.502;6.918;2024-02-21T05:11:13;19.60;;;13.88;;
17214;SDS011;8723;51.502;6.918;2024-02-21T05:13:41;18.73;;;12.73;;
17214;SDS011;8723;51.502;6.918;2024-02-21T05:16:09;21.17;;;12.30;;
17214;SDS011;8723;51.502;6.918;2024-02-21T05:18:36;21.40;;;12.63;;
17214;SDS011;8723;51.502;6.918;2024-02-21T05:21:03;16.60;;;12.25;;
17214;SDS011;8723;51.502;6.918;2024-02-21T05:23:30;19.75;;;12.80;;
17214;SDS011;8723;51.502;6.918;2024-02-21T05:25:58;21.55;;;12.38;;
17214;SDS011;8723;51.502;6.918;2024-02-21T05:28:25;17.60;;;11.43;;
17214;SDS011;8723;51.502;6.918;2024-02-21T05:30:52;19.50;;;12.75;;
17214;SDS011;8723;51.502;6.918;2024-02-21T05:33:20;17.38;;;11.85;;
17214;SDS011;8723;51.502;6.918;2024-02-21T05:35:47;18.77;;;12.45;;
17214;SDS011;8723;51.502;6.918;2024-02-21T05:38:15;17.65;;;11.55;;
17214;SDS011;8723;51.502;6.918;2024-02-21T05:40:42;17.50;;;10.93;;
17214;SDS011;8723;51.502;6.918;2024-02-21T05:43:09;18.60;;;11.80;;
17214;SDS011;8723;51.502;6.918;2024-02-21T05:45:36;15.50;;;10.80;;
17214;SDS011;8723;51.502;6.918;2024-02-21T05:48:03;15.57;;;11.00;;
17214;SDS011;8723;51.502;6.918;2024-02-21T05:50:32;18.40;;;11.35;;
17214;SDS011;8723;51.502;6.918;2024-02-21T05:52:59;19.47;;;11.20;;
17214;SDS011;8723;51.502;6.918;2024-02-21T05:55:26;17.25;;;11.45;;
17214;SDS011;8723;51.502;6.918;2024-02-21T05:57:53;16.23;;;11.00;;
17214;SDS011;8723;51.502;6.918;2024-02-21T06:00:21;15.18;;;10.88;;
17214;SDS011;8723;51.502;6.918;2024-02-21T06:02:48;17.10;;;10.80;;
17214;SDS011;8723;51.502;6.918;2024-02-21T06:05:14;14.50;;;9.70;;
17214;SDS011;8723;51.502;6.918;2024-02-21T06:07:43;13.55;;;10.05;;
17214;SDS011;8723;51.502;6.918;2024-02-21T06:10:10;18.88;;;10.43;;
17214;SDS011;8723;51.502;6.918;2024-02-21T06:12:37;16.17;;;10.40;;
17214;SDS011;8723;51.502;6.918;2024-02-21T06:15:05;19.58;;;10.35;;
17214;SDS011;8723;51.502;6.918;2024-02-21T06:17:32;16.52;;;9.90;;
17214;SDS011;8723;51.502;6.918;2024-02-21T06:19:59;16.38;;;10.02;;
17214;SDS011;8723;51.502;6.918;2024-02-21T06:22:26;17.83;;;10.68;;
17214;SDS011;8723;51.502;6.918;2024-02-21T06:24:55;14.80;;;10.15;;
17214;SDS011;8723;51.502;6.918;2024-02-21T06:27:22;15.07;;;9.30;;
17214;SDS011;8723;51.502;6.918;2024-02-21T06:29:49;14.23;;;10.27;;
17214;SDS011;8723;51.502;6.918;2024-02-21T06:32:16;15.25;;;10.00;;
17214;SDS011;8723;51.502;6.918;2024-02-21T06:34:43;15.77;;;10.18;;
17214;SDS011;8723;51.502;6.918;2024-02-21T06:37:10;14.27;;;9.77;;
17214;SDS011;8723;51.502;6.918;2024-02-21T06:39:38;17.70;;;10.18;;
17214;SDS011;8723;51.502;6.918;2024-02-21T06:42:07;15.40;;;9.60;;
17214;SDS011;8723;51.502;6.918;2024-02-21T06:44:34;17.67;;;9.70;;
17214;SDS011;8723;51.502;6.918;2024-02-21T06:47:05;17.20;;;10.37;;
17214;SDS011;8723;51.502;6.918;2024-02-21T06:49:33;19.10;;;10.25;;
17214;SDS011;8723;51.502;6.918;2024-02-21T06:52:02;14.67;;;9.43;;
17214;SDS011;8723;51.502;6.918;2024-02-21T06:54:29;17.98;;;10.35;;
17214;SDS011;8723;51.502;6.918;2024-02-21T06:56:56;15.38;;;9.60;;
17214;SDS011;8723;51.502;6.918;2024-02-21T06:59:25;15.75;;;9.60;;
17214;SDS011;8723;51.502;6.918;2024-02-21T07:01:53;16.17;;;10.32;;
17214;SDS011;8723;51.502;6.918;2024-02-21T07:04:21;15.88;;;9.98;;
17214;SDS011;8723;51.502;6.918;2024-02-21T07:06:48;13.35;;;9.27;;
17214;SDS011;8723;51.502;6.918;2024-02-21T07:09:16;16.40;;;9.88;;
17214;SDS011;8723;51.502;6.918;2024-02-21T07:11:43;17.33;;;9.82;;
17214;SDS011;8723;51.502;6.918;2024-02-21T07:14:10;14.93;;;9.48;;
17214;SDS011;8723;51.502;6.918;2024-02-21T07:16:38;16.17;;;9.43;;
17214;SDS011;8723;51.502;6.918;2024-02-21T07:19:05;17.88;;;9.32;;
17214;SDS011;8723;51.502;6.918;2024-02-21T07:21:32;13.32;;;9.10;;
17214;SDS011;8723;51.502;6.918;2024-02-21T07:24:00;16.67;;;9.40;;
17214;SDS011;8723;51.502;6.918;2024-02-21T07:26:27;13.50;;;9.37;;
17214;SDS011;8723;51.502;6.918;2024-02-21T07:28:54;14.07;;;8.80;;
17214;SDS011;8723;51.502;6.918;2024-02-21T07:31:22;13.27;;;9.32;;
17214;SDS011;8723;51.502;6.918;2024-02-21T07:33:50;14.18;;;8.77;;
17214;SDS011;8723;51.502;6.918;2024-02-21T07:36:28;14.27;;;8.98;;
17214;SDS011;8723;51.502;6.918;2024-02-21T07:38:55;14.85;;;9.30;;
17214;SDS011;8723;51.502;6.918;2024-02-21T07:41:22;14.02;;;8.25;;
17214;SDS011;8723;51.502;6.918;2024-02-21T07:43:49;14.87;;;9.30;;
17214;SDS011;8723;51.502;6.918;2024-02-21T07:46:17;12.00;;;8.23;;
17214;SDS011;8723;51.502;6.918;2024-02-21T07:48:44;12.88;;;8.25;;
17214;SDS011;8723;51.502;6.918;2024-02-21T07:51:13;14.02;;;8.52;;
17214;SDS011;8723;51.502;6.918;2024-02-21T07:53:41;12.23;;;8.48;;
17214;SDS011;8723;51.502;6.918;2024-02-21T07:56:09;13.10;;;8.63;;
17214;SDS011;8723;51.502;6.918;2024-02-21T07:58:37;12.48;;;8.50;;
17214;SDS011;8723;51.502;6.918;2024-02-21T08:01:04;10.13;;;7.63;;
17214;SDS011;8723;51.502;6.918;2024-02-21T08:03:31;12.10;;;7.55;;
17214;SDS011;8723;51.502;6.918;2024-02-21T08:05:58;10.98;;;7.65;;
17214;SDS011;8723;51.502;6.918;2024-02-21T08:08:26;11.80;;;7.80;;
17214;SDS011;8723;51.502;6.918;2024-02-21T08:10:54;11.53;;;8.20;;
17214;SDS011;8723;51.502;6.918;2024-02-21T08:13:21;11.40;;;7.55;;
17214;SDS011;8723;51.502;6.918;2024-02-21T08:15:48;12.65;;;7.80;;
17214;SDS011;8723;51.502;6.918;2024-02-21T08:18:16;11.90;;;7.45;;
17214;SDS011;8723;51.502;6.918;2024-02-21T08:20:43;12.73;;;7.10;;
17214;SDS011;8723;51.502;6.918;2024-02-21T08:23:10;11.65;;;6.93;;
17214;SDS011;8723;51.502;6.918;2024-02-21T08:25:38;12.27;;;7.35;;
17214;SDS011;8723;51.502;6.918;2024-02-21T08:28:05;12.07;;;6.85;;
17214;SDS011;8723;51.502;6.918;2024-02-21T08:30:33;11.63;;;7.10;;
17214;SDS011;8723;51.502;6.918;2024-02-21T08:33:00;10.13;;;6.28;;
17214;SDS011;8723;51.502;6.918;2024-02-21T08:35:28;11.95;;;7.13;;
17214;SDS011;8723;51.502;6.918;2024-02-21T08:37:55;12.02;;;7.22;;
17214;SDS011;8723;51.502;6.918;2024-02-21T08:40:22;12.45;;;7.15;;
17214;SDS011;8723;51.502;6.918;2024-02-21T08:42:51;13.30;;;7.50;;
17214;SDS011;8723;51.502;6.918;2024-02-21T08:45:19;11.93;;;7.40;;
17214;SDS011;8723;51.502;6.918;2024-02-21T08:47:46;15.48;;;7.38;;
17214;SDS011;8723;51.502;6.918;2024-02-21T08:50:13;15.10;;;7.05;;
17214;SDS011;8723;51.502;6.918;2024-02-21T08:52:40;15.80;;;7.63;;
17214;SDS011;8723;51.502;6.918;2024-02-21T08:55:07;14.73;;;7.38;;
17214;SDS011;8723;51.502;6.918;2024-02-21T08:57:34;15.40;;;8.38;;
17214;SDS011;8723;51.502;6.918;2024-02-21T09:00:05;16.48;;;7.68;;
17214;SDS011;8723;51.502;6.918;2024-02-21T09:02:35;14.35;;;7.38;;
17214;SDS011;8723;51.502;6.918;2024-02-21T09:05:03;14.75;;;7.20;;
17214;SDS011;8723;51.502;6.918;2024-02-21T09:07:31;12.30;;;7.03;;
17214;SDS011;8723;51.502;6.918;2024-02-21T09:09:58;13.07;;;7.40;;
17214;SDS011;8723;51.502;6.918;2024-02-21T09:12:25;12.77;;;7.22;;
17214;SDS011;8723;51.502;6.918;2024-02-21T09:14:52;12.88;;;7.13;;
17214;SDS011;8723;51.502;6.918;2024-02-21T09:17:21;13.10;;;7.50;;
17214;SDS011;8723;51.502;6.918;2024-02-21T09:19:50;10.40;;;6.82;;
17214;SDS011;8723;51.502;6.918;2024-02-21T09:22:17;10.27;;;6.78;;
17214;SDS011;8723;51.502;6.918;2024-02-21T09:24:44;11.67;;;6.77;;
17214;SDS011;8723;51.502;6.918;2024-02-21T09:27:12;11.07;;;6.75;;
17214;SDS011;8723;51.502;6.918;2024-02-21T09:29:39;10.57;;;6.28;;
17214;SDS011;8723;51.502;6.918;2024-02-21T09:32:06;11.95;;;6.65;;
17214;SDS011;8723;51.502;6.918;2024-02-21T09:34:35;9.32;;;6.10;;
17214;SDS011;8723;51.502;6.918;2024-02-21T09:37:02;11.13;;;5.80;;
17214;SDS011;8723;51.502;6.918;2024-02-21T09:39:29;11.18;;;5.93;;
17214;SDS011;8723;51.502;6.918;2024-02-21T09:41:58;9.35;;;5.57;;
17214;SDS011;8723;51.502;6.918;2024-02-21T09:44:26;8.77;;;5.18;;
17214;SDS011;8723;51.502;6.918;2024-02-21T09:46:57;10.38;;;5.72;;
17214;SDS011;8723;51.502;6.918;2024-02-21T09:49:29;9.75;;;5.43;;
17214;SDS011;8723;51.502;6.918;2024-02-21T09:52:00;9.18;;;5.20;;
17214;SDS011;8723;51.502;6.918;2024-02-21T09:54:28;10.47;;;5.60;;
17214;SDS011;8723;51.502;6.918;2024-02-21T09:56:56;9.88;;;5.05;;
17214;SDS011;8723;51.502;6.918;2024-02-21T09:59:23;10.00;;;5.30;;
17214;SDS011;8723;51.502;6.918;2024-02-21T10:01:50;9.88;;;5.10;;
17214;SDS011;8723;51.502;6.918;2024-02-21T10:04:17;10.45;;;4.80;;
17214;SDS011;8723;51.502;6.918;2024-02-21T10:06:44;8.18;;;5.18;;
17214;SDS011;8723;51.502;6.918;2024-02-21T10:09:21;8.70;;;4.85;;
17214;SDS011;8723;51.502;6.918;2024-02-21T10:11:48;9.57;;;4.82;;
17214;SDS011;8723;51.502;6.918;2024-02-21T10:14:16;7.25;;;4.78;;
17214;SDS011;8723;51.502;6.918;2024-02-21T10:16:43;7.40;;;4.50;;
17214;SDS011;8723;51.502;6.918;2024-02-21T10:19:17;9.70;;;4.97;;
17214;SDS011;8723;51.502;6.918;2024-02-21T10:21:44;9.80;;;4.88;;
17214;SDS011;8723;51.502;6.918;2024-02-21T10:24:11;9.73;;;5.10;;
17214;SDS011;8723;51.502;6.918;2024-02-21T10:26:40;7.97;;;4.68;;
17214;SDS011;8723;51.502;6.918;2024-02-21T10:29:07;7.95;;;4.72;;
17214;SDS011;8723;51.502;6.918;2024-02-21T10:31:36;7.70;;;4.40;;
17214;SDS011;8723;51.502;6.918;2024-02-21T10:34:04;8.68;;;4.75;;
17214;SDS011;8723;51.502;6.918;2024-02-21T10:36:31;7.97;;;4.80;;
17214;SDS011;8723;51.502;6.918;2024-02-21T10:38:59;9.00;;;5.20;;
17214;SDS011;8723;51.502;6.918;2024-02-21T10:41:26;9.82;;;4.50;;
17214;SDS011;8723;51.502;6.918;2024-02-21T10:43:55;8.40;;;4.40;;
17214;SDS011;8723;51.502;6.918;2024-02-21T10:46:23;8.00;;;4.72;;
17214;SDS011;8723;51.502;6.918;2024-02-21T10:48:56;9.85;;;4.70;;
17214;SDS011;8723;51.502;6.918;2024-02-21T10:51:27;7.85;;;4.05;;
17214;SDS011;8723;51.502;6.918;2024-02-21T10:53:58;10.40;;;4.43;;
17214;SDS011;8723;51.502;6.918;2024-02-21T10:56:29;7.33;;;4.30;;
17214;SDS011;8723;51.502;6.918;2024-02-21T10:59:02;8.80;;;4.50;;
17214;SDS011;8723;51.502;6.918;2024-02-21T11:01:29;9.52;;;4.55;;
17214;SDS011;8723;51.502;6.918;2024-02-21T11:03:58;10.10;;;4.80;;
17214;SDS011;8723;51.502;6.918;2024-02-21T11:06:26;9.18;;;4.38;;
17214;SDS011;8723;51.502;6.918;2024-02-21T11:09:03;7.80;;;4.55;;
17214;SDS011;8723;51.502;6.918;2024-02-21T11:11:33;7.60;;;4.47;;
17214;SDS011;8723;51.502;6.918;2024-02-21T11:14:05;6.23;;;4.00;;
17214;SDS011;8723;51.502;6.918;2024-02-21T11:16:35;5.78;;;4.45;;
17214;SDS011;8723;51.502;6.918;2024-02-21T11:19:09;9.02;;;4.78;;
17214;SDS011;8723;51.502;6.918;2024-02-21T11:21:37;8.20;;;4.78;;
17214;SDS011;8723;51.502;6.918;2024-02-21T11:24:04;7.18;;;4.60;;
17214;SDS011;8723;51.502;6.918;2024-02-21T11:26:31;7.25;;;4.32;;
17214;SDS011;8723;51.502;6.918;2024-02-21T11:28:59;8.48;;;4.57;;
17214;SDS011;8723;51.502;6.918;2024-02-21T11:31:37;5.43;;;3.90;;
17214;SDS011;8723;51.502;6.918;2024-02-21T11:34:08;8.20;;;4.80;;
17214;SDS011;8723;51.502;6.918;2024-02-21T11:36:35;7.60;;;4.63;;
17214;SDS011;8723;51.502;6.918;2024-02-21T11:39:05;8.57;;;4.72;;
17214;SDS011;8723;51.502;6.918;2024-02-21T11:41:32;8.52;;;4.50;;
17214;SDS011;8723;51.502;6.918;2024-02-21T11:43:59;8.05;;;4.40;;
17214;SDS011;8723;51.502;6.918;2024-02-21T11:46:26;8.00;;;4.40;;
17214;SDS011;8723;51.502;6.918;2024-02-21T11:48:55;9.18;;;4.60;;
17214;SDS011;8723;51.502;6.918;2024-02-21T11:51:25;7.53;;;4.45;;
17214;SDS011;8723;51.502;6.918;2024-02-21T11:53:52;9.55;;;4.90;;
17214;SDS011;8723;51.502;6.918;2024-02-21T11:56:20;7.53;;;4.65;;
17214;SDS011;8723;51.502;6.918;2024-02-21T11:58:48;6.97;;;4.25;;
17214;SDS011;8723;51.502;6.918;2024-02-21T12:01:15;6.83;;;4.20;;
17214;SDS011;8723;51.502;6.918;2024-02-21T12:03:42;7.35;;;4.35;;
17214;SDS011;8723;51.502;6.918;2024-02-21T12:06:16;7.25;;;4.75;;
17214;SDS011;8723;51.502;6.918;2024-02-21T12:08:46;7.57;;;4.60;;
17214;SDS011;8723;51.502;6.918;2024-02-21T12:11:19;7.38;;;4.50;;
17214;SDS011;8723;51.502;6.918;2024-02-21T12:13:47;7.65;;;4.50;;
17214;SDS011;8723;51.502;6.918;2024-02-21T12:16:15;9.60;;;4.72;;
17214;SDS011;8723;51.502;6.918;2024-02-21T12:18:44;7.75;;;4.57;;
17214;SDS011;8723;51.502;6.918;2024-02-21T12:21:11;7.35;;;4.43;;
17214;SDS011;8723;51.502;6.918;2024-02-21T12:23:40;6.20;;;4.53;;
17214;SDS011;8723;51.502;6.918;2024-02-21T12:26:07;8.82;;;4.57;;
17214;SDS011;8723;51.502;6.918;2024-02-21T12:28:34;6.73;;;4.47;;
17214;SDS011;8723;51.502;6.918;2024-02-21T12:31:01;7.13;;;4.38;;
17214;SDS011;8723;51.502;6.918;2024-02-21T12:33:29;7.22;;;3.97;;
17214;SDS011;8723;51.502;6.918;2024-02-21T12:35:56;8.02;;;4.57;;
17214;SDS011;8723;51.502;6.918;2024-02-21T12:38:24;8.80;;;4.20;;
17214;SDS011;8723;51.502;6.918;2024-02-21T12:40:52;8.75;;;3.92;;
17214;SDS011;8723;51.502;6.918;2024-02-21T12:43:19;7.72;;;4.20;;
17214;SDS011;8723;51.502;6.918;2024-02-21T12:45:47;9.65;;;4.57;;
17214;SDS011;8723;51.502;6.918;2024-02-21T12:48:14;6.53;;;3.90;;
17214;SDS011;8723;51.502;6.918;2024-02-21T12:50:42;7.10;;;4.40;;
17214;SDS011;8723;51.502;6.918;2024-02-21T12:53:13;8.30;;;4.22;;
17214;SDS011;8723;51.502;6.918;2024-02-21T12:55:41;7.57;;;4.60;;
17214;SDS011;8723;51.502;6.918;2024-02-21T12:58:09;6.68;;;3.80;;
17214;SDS011;8723;51.502;6.918;2024-02-21T13:00:36;8.82;;;3.88;;
17214;SDS011;8723;51.502;6.918;2024-02-21T13:03:04;7.50;;;4.40;;
17214;SDS011;8723;51.502;6.918;2024-02-21T13:05:31;6.78;;;3.65;;
17214;SDS011;8723;51.502;6.918;2024-02-21T13:07:58;7.55;;;3.95;;
17214;SDS011;8723;51.502;6.918;2024-02-21T13:10:25;10.52;;;4.40;;
17214;SDS011;8723;51.502;6.918;2024-02-21T13:12:52;8.93;;;4.28;;
17214;SDS011;8723;51.502;6.918;2024-02-21T13:15:21;8.15;;;4.07;;
17214;SDS011;8723;51.502;6.918;2024-02-21T13:17:48;10.70;;;4.20;;
17214;SDS011;8723;51.502;6.918;2024-02-21T13:20:15;6.57;;;3.95;;
17214;SDS011;8723;51.502;6.918;2024-02-21T13:22:42;5.70;;;3.37;;
17214;SDS011;8723;51.502;6.918;2024-02-21T13:25:09;8.10;;;3.55;;
17214;SDS011;8723;51.502;6.918;2024-02-21T13:27:40;5.85;;;3.83;;
17214;SDS011;8723;51.502;6.918;2024-02-21T13:30:07;7.40;;;3.90;;
17214;SDS011;8723;51.502;6.918;2024-02-21T13:32:36;6.22;;;3.38;;
17214;SDS011;8723;51.502;6.918;2024-02-21T13:35:03;8.07;;;3.60;;
17214;SDS011;8723;51.502;6.918;2024-02-21T13:37:31;10.30;;;4.00;;
17214;SDS011;8723;51.502;6.918;2024-02-21T13:39:58;9.63;;;4.00;;
17214;SDS011;8723;51.502;6.918;2024-02-21T13:42:25;8.18;;;3.80;;
17214;SDS011;8723;51.502;6.918;2024-02-21T13:44:53;8.68;;;3.85;;
17214;SDS011;8723;51.502;6.918;2024-02-21T13:47:20;7.03;;;3.83;;
17214;SDS011;8723;51.502;6.918;2024-02-21T13:49:48;6.78;;;3.78;;
17214;SDS011;8723;51.502;6.918;2024-02-21T13:52:15;7.25;;;3.85;;
17214;SDS011;8723;51.502;6.918;2024-02-21T13:54:45;6.05;;;3.40;;
17214;SDS011;8723;51.502;6.918;2024-02-21T13:57:12;7.55;;;3.95;;
17214;SDS011;8723;51.502;6.918;2024-02-21T13:59:39;8.32;;;4.00;;
17214;SDS011;8723;51.502;6.918;2024-02-21T14:02:07;6.93;;;3.58;;
17214;SDS011;8723;51.502;6.918;2024-02-21T14:04:35;8.40;;;3.90;;
17214;SDS011;8723;51.502;6.918;2024-02-21T14:07:03;9.47;;;3.70;;
17214;SDS011;8723;51.502;6.918;2024-02-21T14:09:30;8.88;;;3.90;;
17214;SDS011;8723;51.502;6.918;2024-02-21T14:11:58;8.68;;;3.75;;
17214;SDS011;8723;51.502;6.918;2024-02-21T14:14:25;7.53;;;3.20;;
17214;SDS011;8723;51.502;6.918;2024-02-21T14:16:52;7.55;;;3.42;;
17214;SDS011;8723;51.502;6.918;2024-02-21T14:19:21;7.80;;;3.90;;
17214;SDS011;8723;51.502;6.918;2024-02-21T14:21:48;7.88;;;3.85;;
17214;SDS011;8723;51.502;6.918;2024-02-21T14:24:16;9.77;;;3.88;;
17214;SDS011;8723;51.502;6.918;2024-02-21T14:26:44;7.63;;;3.50;;
17214;SDS011;8723;51.502;6.918;2024-02-21T14:29:11;7.05;;;3.80;;
17214;SDS011;8723;51.502;6.918;2024-02-21T14:31:38;8.48;;;3.65;;
17214;SDS011;8723;51.502;6.918;2024-02-21T14:34:06;7.75;;;3.70;;
17214;SDS011;8723;51.502;6.918;2024-02-21T14:36:33;7.88;;;3.67;;
17214;SDS011;8723;51.502;6.918;2024-02-21T14:39:00;9.70;;;4.30;;
17214;SDS011;8723;51.502;6.918;2024-02-21T14:41:29;8.13;;;3.72;;
17214;SDS011;8723;51.502;6.918;2024-02-21T14:43:56;8.63;;;3.78;;
17214;SDS011;8723;51.502;6.918;2024-02-21T14:46:25;6.55;;;3.70;;
17214;SDS011;8723;51.502;6.918;2024-02-21T14:48:53;7.70;;;3.97;;
17214;SDS011;8723;51.502;6.918;2024-02-21T14:51:21;7.05;;;3.22;;